Time;durP1;ratioP1;P1;durP2;ratioP2;P2;SDS_P1;SDS_P2;PMS_P1;PMS_P2;Temp;Humidity;BMP_temperature;BMP_pressure;BME280_temperature;BME280_humidity;BME280_pressure;Samples;Min_cycle;Max_cycle;Signal;HPM_P1;HPM_P2
2020/12/04 06:47:27;;;;;;;19.92;10.13;;;;;;;;;;5786104;23;20042;-85
2020/12/04 06:49:53;;;;;;;21.85;9.82;;;;;;;;;;5014020;28;20030;-88
2020/12/04 06:52:19;;;;;;;17.45;10.02;;;;;;;;;;5019040;28;20018;-87
2020/12/04 06:54:47;;;;;;;21.65;10.43;;;;;;;;;;5019395;28;20025;-87
2020/12/04 06:57:14;;;;;;;26.20;11.25;;;;;;;;;;5015927;28;20080;-88
2020/12/04 06:59:41;;;;;;;18.88;9.95;;;;;;;;;;5025927;28;20094;-89
2020/12/04 07:02:08;;;;;;;20.05;9.85;;;;;;;;;;5009984;28;20033;-85
2020/12/04 07:04:36;;;;;;;17.30;9.02;;;;;;;;;;5048045;28;20085;-88
2020/12/04 07:07:06;;;;;;;18.08;9.25;;;;;;;;;;5029615;28;20048;-88
2020/12/04 07:09:32;;;;;;;23.27;10.25;;;;;;;;;;5035472;28;20033;-90
2020/12/04 07:11:59;;;;;;;19.38;9.75;;;;;;;;;;5044681;28;20026;-89
2020/12/04 07:14:25;;;;;;;18.88;9.95;;;;;;;;;;5025742;28;20538;-90
2020/12/04 07:16:51;;;;;;;;;;;;;;;;;;5031433;28;20387;-88
2020/12/04 07:19:17;;;;;;;22.55;9.75;;;;;;;;;;5012186;28;19906;-87
2020/12/04 07:21:44;;;;;;;19.08;9.82;;;;;;;;;;5005461;28;20262;-87
2020/12/04 07:24:11;;;;;;;22.25;9.32;;;;;;;;;;5003881;28;20114;-89
2020/12/04 07:26:39;;;;;;;23.30;10.82;;;;;;;;;;5008056;28;20034;-86
2020/12/04 07:29:08;;;;;;;17.05;9.48;;;;;;;;;;5003937;28;20057;-86
2020/12/04 07:31:35;;;;;;;18.98;10.27;;;;;;;;;;5007138;28;20484;-88
2020/12/04 07:34:01;;;;;;;18.83;9.90;;;;;;;;;;5008444;28;20652;-88
2020/12/04 07:36:27;;;;;;;;;;;;;;;;;;5007966;28;20021;-87
2020/12/04 07:38:59;;;;;;;17.27;9.05;;;;;;;;;;5008085;28;19913;-87
2020/12/04 07:41:35;;;;;;;20.13;9.38;;;;;;;;;;5010854;28;20030;-87
2020/12/04 07:44:02;;;;;;;24.98;9.13;;;;;;;;;;5007490;28;20014;-87
2020/12/04 07:46:29;;;;;;;15.93;9.35;;;;;;;;;;5011085;28;20164;-85
2020/12/04 07:49:03;;;;;;;16.33;9.23;;;;;;;;;;5016343;28;20180;-85
2020/12/04 07:51:29;;;;;;;19.42;10.88;;;;;;;;;;5014900;28;20376;-86
2020/12/04 07:53:56;;;;;;;;;;;;;;;;;;5014682;28;20477;-86
2020/12/04 07:56:27;;;;;;;17.20;8.55;;;;;;;;;;5006955;28;19948;-85
2020/12/04 07:58:57;;;;;;;18.48;10.32;;;;;;;;;;5004840;28;20041;-87
2020/12/04 08:01:23;;;;;;;19.70;10.00;;;;;;;;;;5006061;28;20025;-86
2020/12/04 08:03:50;;;;;;;23.50;10.02;;;;;;;;;;5023811;28;20025;-88
2020/12/04 08:06:16;;;;;;;19.10;10.57;;;;;;;;;;5002700;28;20029;-86
2020/12/04 08:08:42;;;;;;;24.85;10.80;;;;;;;;;;5004946;28;20097;-86
2020/12/04 08:11:09;;;;;;;19.58;10.07;;;;;;;;;;5006265;28;20568;-87
2020/12/04 08:13:39;;;;;;;19.75;9.98;;;;;;;;;;5005957;28;20026;-87
2020/12/04 08:16:08;;;;;;;18.15;9.98;;;;;;;;;;5003564;28;20014;-86
2020/12/04 08:18:35;;;;;;;17.20;10.10;;;;;;;;;;5004361;28;20112;-87
2020/12/04 08:21:01;;;;;;;;;;;;;;;;;;5005187;28;20026;-87
2020/12/04 08:23:27;;;;;;;18.65;9.98;;;;;;;;;;5004046;28;19909;-87
2020/12/04 08:25:53;;;;;;;21.80;10.60;;;;;;;;;;5001182;28;20054;-87
2020/12/04 08:28:19;;;;;;;19.45;9.48;;;;;;;;;;5007996;28;20069;-87
2020/12/04 08:30:45;;;;;;;20.92;10.38;;;;;;;;;;5004635;28;20022;-88
2020/12/04 08:33:11;;;;;;;22.45;9.85;;;;;;;;;;5005997;28;20037;-87
2020/12/04 08:35:38;;;;;;;22.40;10.48;;;;;;;;;;5004116;28;20022;-86
2020/12/04 08:38:06;;;;;;;21.85;10.52;;;;;;;;;;5003498;28;20038;-87
2020/12/04 08:40:33;;;;;;;23.45;10.20;;;;;;;;;;5004889;28;20050;-85
2020/12/04 08:43:08;;;;;;;22.95;10.85;;;;;;;;;;5020624;28;20448;-87
2020/12/04 08:45:34;;;;;;;19.50;11.13;;;;;;;;;;5018196;28;20083;-88
2020/12/04 08:48:13;;;;;;;19.90;10.05;;;;;;;;;;5005406;28;20053;-85
2020/12/04 08:50:43;;;;;;;21.23;10.50;;;;;;;;;;5005378;28;20025;-85
2020/12/04 08:53:09;;;;;;;22.10;10.02;;;;;;;;;;5020172;28;20040;-87
2020/12/04 08:55:35;;;;;;;25.40;10.65;;;;;;;;;;5003443;28;20026;-89
2020/12/04 08:58:05;;;;;;;27.85;10.48;;;;;;;;;;5008536;28;20038;-90
2020/12/04 09:00:33;;;;;;;20.15;10.82;;;;;;;;;;5019919;28;20053;-86
2020/12/04 09:02:59;;;;;;;19.30;10.32;;;;;;;;;;5000627;28;20022;-88
2020/12/04 09:05:25;;;;;;;;;;;;;;;;;;5018790;28;20023;-95
2020/12/04 09:07:51;;;;;;;17.33;10.35;;;;;;;;;;5006286;28;19920;-90
2020/12/04 09:10:18;;;;;;;22.60;10.75;;;;;;;;;;5003407;28;20093;-87
2020/12/04 09:12:45;;;;;;;18.45;10.15;;;;;;;;;;5019293;28;20034;-87
2020/12/04 09:15:12;;;;;;;21.27;10.02;;;;;;;;;;5000170;28;20022;-91
2020/12/04 09:17:39;;;;;;;18.00;9.88;;;;;;;;;;5001033;28;20101;-85
2020/12/04 09:20:05;;;;;;;;;;;;;;;;;;5002415;28;20018;-85
2020/12/04 09:22:31;;;;;;;22.58;10.68;;;;;;;;;;5002410;28;19909;-87
2020/12/04 09:24:58;;;;;;;19.80;10.57;;;;;;;;;;5003757;28;20132;-87
2020/12/04 09:27:24;;;;;;;20.40;9.85;;;;;;;;;;5004117;28;20077;-87
2020/12/04 09:29:50;;;;;;;19.00;11.05;;;;;;;;;;5003218;28;20030;-86
2020/12/04 09:32:17;;;;;;;26.38;10.20;;;;;;;;;;5000643;28;20022;-87
2020/12/04 09:34:44;;;;;;;21.17;11.07;;;;;;;;;;5002959;28;20050;-87
2020/12/04 09:37:14;;;;;;;19.70;9.73;;;;;;;;;;5004147;28;20065;-87
2020/12/04 09:39:44;;;;;;;23.13;10.10;;;;;;;;;;5001278;28;20030;-87
2020/12/04 09:42:11;;;;;;;27.58;9.63;;;;;;;;;;5024123;28;20072;-91
2020/12/04 09:44:37;;;;;;;20.10;10.88;;;;;;;;;;5000683;28;20038;-85
2020/12/04 09:47:03;;;;;;;18.42;9.77;;;;;;;;;;5019109;28;20022;-84
2020/12/04 09:49:29;;;;;;;26.02;11.00;;;;;;;;;;5007289;28;20029;-85
2020/12/04 09:51:57;;;;;;;20.13;9.82;;;;;;;;;;5003717;28;20029;-84
2020/12/04 09:54:23;;;;;;;19.92;10.18;;;;;;;;;;5009715;28;20036;-91
2020/12/04 09:56:51;;;;;;;23.35;10.07;;;;;;;;;;5021737;28;20477;-91
2020/12/04 09:59:18;;;;;;;27.42;12.38;;;;;;;;;;5004786;28;20026;-88
2020/12/04 10:01:44;;;;;;;19.73;9.55;;;;;;;;;;5022178;28;20060;-90
2020/12/04 10:04:10;;;;;;;16.50;9.07;;;;;;;;;;4999036;28;20057;-90
2020/12/04 10:06:39;;;;;;;32.67;11.45;;;;;;;;;;4994357;28;20030;-89
2020/12/04 10:09:05;;;;;;;32.20;10.55;;;;;;;;;;5006559;28;20110;-90
2020/12/04 10:11:31;;;;;;;28.58;11.30;;;;;;;;;;5002964;28;20084;-91
2020/12/04 10:13:57;;;;;;;27.88;10.75;;;;;;;;;;4994799;28;20023;-91
2020/12/04 10:16:23;;;;;;;22.70;10.55;;;;;;;;;;4994780;28;20037;-91
2020/12/04 10:18:49;;;;;;;27.92;9.90;;;;;;;;;;5001447;28;20034;-89
2020/12/04 10:21:15;;;;;;;29.65;10.95;;;;;;;;;;5017735;28;20022;-90
2020/12/04 10:23:41;;;;;;;26.05;10.25;;;;;;;;;;5030690;28;20080;-90
2020/12/04 10:26:07;;;;;;;31.45;12.00;;;;;;;;;;5007874;28;20026;-89
2020/12/04 10:28:33;;;;;;;21.80;10.55;;;;;;;;;;5002839;28;20536;-89
2020/12/04 10:31:00;;;;;;;36.92;10.80;;;;;;;;;;5008555;28;20022;-90
2020/12/04 10:33:26;;;;;;;21.77;11.32;;;;;;;;;;4999088;28;20026;-89
2020/12/04 10:35:52;;;;;;;21.35;10.73;;;;;;;;;;5011063;28;20046;-88
2020/12/04 10:38:18;;;;;;;32.28;11.63;;;;;;;;;;5017320;28;20034;-91
2020/12/04 10:40:44;;;;;;;26.73;10.82;;;;;;;;;;5017313;28;20026;-91
2020/12/04 10:43:10;;;;;;;18.38;9.65;;;;;;;;;;5033568;28;20030;-91
2020/12/04 10:45:36;;;;;;;19.98;10.45;;;;;;;;;;5018249;28;20037;-91
2020/12/04 10:48:03;;;;;;;20.90;10.73;;;;;;;;;;5018387;28;20038;-91
2020/12/04 10:50:29;;;;;;;23.60;10.38;;;;;;;;;;5017956;28;20080;-91
2020/12/04 10:52:55;;;;;;;21.92;9.90;;;;;;;;;;5026175;28;20026;-91
2020/12/04 10:55:21;;;;;;;25.73;10.13;;;;;;;;;;4998297;28;20064;-90
2020/12/04 10:57:47;;;;;;;21.08;10.25;;;;;;;;;;4999814;28;20034;-91
2020/12/04 11:00:13;;;;;;;19.05;9.73;;;;;;;;;;5008655;28;20022;-93
2020/12/04 11:02:41;;;;;;;18.17;9.48;;;;;;;;;;5008778;28;20049;-93
2020/12/04 11:07:52;;;;;;;22.25;9.10;;;;;;;;;;4997985;28;20125;-92
2020/12/04 11:10:19;;;;;;;18.65;9.63;;;;;;;;;;4997873;28;20022;-90
2020/12/04 11:12:45;;;;;;;;;;;;;;;;;;5005467;28;20025;-92
2020/12/04 11:15:11;;;;;;;17.63;9.38;;;;;;;;;;5009025;28;19913;-92
2020/12/04 11:17:39;;;;;;;20.20;10.15;;;;;;;;;;5009008;28;20038;-91
2020/12/04 11:20:05;;;;;;;20.00;9.48;;;;;;;;;;5016905;28;20064;-91
2020/12/04 11:22:33;;;;;;;15.73;8.45;;;;;;;;;;5013738;28;20547;-92
2020/12/04 11:25:01;;;;;;;23.92;10.75;;;;;;;;;;5006268;28;20077;-92
2020/12/04 11:27:27;;;;;;;27.40;9.25;;;;;;;;;;5017727;28;20107;-91
2020/12/04 11:29:53;;;;;;;27.65;9.77;;;;;;;;;;5002847;28;20073;-91
2020/12/04 11:32:19;;;;;;;17.88;9.90;;;;;;;;;;4997017;28;20030;-91
2020/12/04 11:34:46;;;;;;;23.48;9.88;;;;;;;;;;5002792;28;20535;-88
2020/12/04 11:37:12;;;;;;;;;;;;;;;;;;5010193;28;20045;-90
2020/12/04 11:39:40;;;;;;;22.13;9.20;;;;;;;;;;5006547;28;19905;-90
2020/12/04 11:42:15;;;;;;;25.90;10.88;;;;;;;;;;5013960;28;20053;-91
2020/12/04 11:44:41;;;;;;;21.80;10.35;;;;;;;;;;5016441;28;20054;-91
2020/12/04 11:47:07;;;;;;;22.33;9.75;;;;;;;;;;5016945;28;20065;-90
2020/12/04 11:49:33;;;;;;;23.83;11.55;;;;;;;;;;5004944;28;20097;-92
2020/12/04 11:51:59;;;;;;;23.80;10.38;;;;;;;;;;4997074;28;20057;-91
2020/12/04 11:54:25;;;;;;;21.88;11.07;;;;;;;;;;4997281;28;20089;-92
2020/12/04 11:56:51;;;;;;;20.20;9.60;;;;;;;;;;5003856;28;20041;-92
2020/12/04 11:59:18;;;;;;;17.08;10.60;;;;;;;;;;5009979;28;20508;-92
2020/12/04 12:01:44;;;;;;;23.70;11.20;;;;;;;;;;5000078;28;20026;-92
2020/12/04 12:04:14;;;;;;;19.30;9.38;;;;;;;;;;5016961;28;20021;-92
2020/12/04 12:06:40;;;;;;;19.08;9.88;;;;;;;;;;5020412;28;20566;-90
2020/12/04 12:09:06;;;;;;;24.73;11.23;;;;;;;;;;5016697;28;20084;-92
2020/12/04 12:11:32;;;;;;;22.65;9.85;;;;;;;;;;5010887;28;20033;-93
2020/12/04 12:13:58;;;;;;;22.55;10.05;;;;;;;;;;4998686;28;20401;-92
2020/12/04 12:16:24;;;;;;;;;;;;;;;;;;5000912;28;20026;-92
2020/12/04 12:18:50;;;;;;;14.73;7.90;;;;;;;;;;5005288;28;19914;-92
2020/12/04 12:21:17;;;;;;;15.75;8.85;;;;;;;;;;5017080;28;20473;-91
2020/12/04 12:23:44;;;;;;;21.88;9.52;;;;;;;;;;5024803;28;20026;-89
2020/12/04 12:26:14;;;;;;;19.25;9.43;;;;;;;;;;5003043;28;20069;-91
2020/12/04 12:28:40;;;;;;;24.80;10.40;;;;;;;;;;5009303;28;20049;-94
2020/12/04 12:31:07;;;;;;;18.42;9.57;;;;;;;;;;5028843;28;20026;-93
2020/12/04 12:33:33;;;;;;;18.90;8.68;;;;;;;;;;5007503;28;20018;-92
2020/12/04 12:35:59;;;;;;;21.20;8.68;;;;;;;;;;4979795;28;20034;-92
2020/12/04 12:38:25;;;;;;;18.20;8.95;;;;;;;;;;4998157;28;21533;-92
2020/12/04 12:40:51;;;;;;;20.48;8.93;;;;;;;;;;5015540;28;20041;-93
2020/12/04 12:43:17;;;;;;;25.70;10.77;;;;;;;;;;5016180;28;20026;-90
2020/12/04 12:45:43;;;;;;;21.40;9.55;;;;;;;;;;5017372;28;20030;-91
2020/12/04 12:48:09;;;;;;;22.00;9.68;;;;;;;;;;5010041;28;20049;-91
2020/12/04 12:50:35;;;;;;;28.77;9.95;;;;;;;;;;5000346;28;20024;-89
2020/12/04 12:53:01;;;;;;;20.20;8.68;;;;;;;;;;5007673;28;20058;-89
2020/12/04 12:55:28;;;;;;;21.95;9.68;;;;;;;;;;5006413;28;20030;-90
2020/12/04 12:57:54;;;;;;;17.52;8.32;;;;;;;;;;5006959;28;20505;-96
2020/12/04 13:00:20;;;;;;;19.63;9.57;;;;;;;;;;5010565;28;20022;-95
2020/12/04 13:02:46;;;;;;;17.63;8.80;;;;;;;;;;5016338;28;20046;-96
2020/12/04 13:07:57;;;;;;;18.95;8.23;;;;;;;;;;5010442;28;20037;-91
2020/12/04 13:10:23;;;;;;;26.65;8.50;;;;;;;;;;5005331;28;20026;-93
2020/12/04 13:12:49;;;;;;;15.82;8.52;;;;;;;;;;5004886;28;20022;-94
2020/12/04 13:15:19;;;;;;;17.75;8.65;;;;;;;;;;5007914;28;20049;-94
2020/12/04 13:17:45;;;;;;;23.77;8.85;;;;;;;;;;5010980;28;20056;-94
2020/12/04 13:20:11;;;;;;;;;;;;;;;;;;5006697;28;20022;-94
2020/12/04 13:22:38;;;;;;;21.05;8.98;;;;;;;;;;5020567;28;19925;-92
2020/12/04 13:25:04;;;;;;;16.02;8.43;;;;;;;;;;5003322;28;20105;-94
2020/12/04 13:27:30;;;;;;;20.10;9.05;;;;;;;;;;5005450;28;20026;-94
2020/12/04 13:29:56;;;;;;;22.60;11.15;;;;;;;;;;5014400;28;20033;-94
2020/12/04 13:32:22;;;;;;;18.17;9.38;;;;;;;;;;5015422;28;20026;-95
2020/12/04 13:34:48;;;;;;;18.73;8.90;;;;;;;;;;5015462;28;20022;-94
2020/12/04 13:37:14;;;;;;;18.67;9.23;;;;;;;;;;5011834;28;20026;-93
2020/12/04 13:39:41;;;;;;;15.80;8.27;;;;;;;;;;5010654;28;20026;-95
2020/12/04 13:42:07;;;;;;;21.45;8.60;;;;;;;;;;4994882;28;20170;-92
2020/12/04 13:44:33;;;;;;;21.85;9.20;;;;;;;;;;5014007;28;20062;-95
2020/12/04 13:46:59;;;;;;;20.95;9.00;;;;;;;;;;5013932;28;20026;-95
2020/12/04 13:49:25;;;;;;;20.90;8.70;;;;;;;;;;5014378;28;20096;-95
2020/12/04 13:51:51;;;;;;;26.67;9.63;;;;;;;;;;5014920;28;20038;-95
2020/12/04 13:54:18;;;;;;;23.77;9.80;;;;;;;;;;5013408;28;20362;-96
2020/12/04 13:56:44;;;;;;;;;;;;;;;;;;5005782;28;20030;-93
2020/12/04 13:59:10;;;;;;;20.10;8.95;;;;;;;;;;5022205;28;19917;-95
2020/12/04 14:01:37;;;;;;;20.20;9.07;;;;;;;;;;4995207;28;20030;-95
2020/12/04 14:04:03;;;;;;;25.85;8.52;;;;;;;;;;4995207;28;20094;-93
2020/12/04 14:06:29;;;;;;;21.67;9.75;;;;;;;;;;5021488;28;20023;-94
2020/12/04 14:08:57;;;;;;;23.23;9.35;;;;;;;;;;5013888;28;20029;-92
2020/12/04 14:11:23;;;;;;;16.35;9.38;;;;;;;;;;5012078;28;20046;-93
2020/12/04 14:13:49;;;;;;;;;;;;;;;;;;5007287;28;20038;-93
2020/12/04 14:16:15;;;;;;;16.08;8.77;;;;;;;;;;5003091;28;19906;-93
2020/12/04 14:18:41;;;;;;;;;;;;;;;;;;5005707;28;20168;-93
2020/12/04 14:21:08;;;;;;;16.25;7.82;;;;;;;;;;5014585;28;19905;-94
2020/12/04 14:23:34;;;;;;;16.60;8.30;;;;;;;;;;5001394;28;20030;-94
2020/12/04 14:26:01;;;;;;;16.85;8.45;;;;;;;;;;5005753;28;20029;-96
2020/12/04 14:28:27;;;;;;;;;;;;;;;;;;5015205;28;20022;-95
2020/12/04 14:30:53;;;;;;;16.05;8.32;;;;;;;;;;5030168;28;19909;-94
2020/12/04 14:33:19;;;;;;;;;;;;;;;;;;5015235;28;20076;-93
2020/12/04 14:35:45;;;;;;;20.33;9.13;;;;;;;;;;5014978;28;19905;-94
2020/12/04 14:39:01;;;;;;;17.25;9.48;;;;;;;;;;5010737;28;20038;-94
2020/12/04 14:40:57;;;;;;;17.42;10.70;;;;;;;;;;5006920;28;20026;-93
2020/12/04 14:43:23;;;;;;;17.40;9.00;;;;;;;;;;5003113;28;20033;-94
2020/12/04 14:45:49;;;;;;;18.02;8.90;;;;;;;;;;4999139;28;20030;-94
2020/12/04 14:48:15;;;;;;;19.00;9.95;;;;;;;;;;4995019;28;20050;-94
2020/12/04 14:50:41;;;;;;;19.02;9.43;;;;;;;;;;4993851;28;20030;-93
2020/12/04 14:53:07;;;;;;;17.73;9.45;;;;;;;;;;4995024;28;20034;-94
2020/12/04 14:55:33;;;;;;;18.65;9.43;;;;;;;;;;4994884;28;20023;-95
2020/12/04 14:57:59;;;;;;;18.25;8.70;;;;;;;;;;4994662;28;20113;-93
2020/12/04 15:00:25;;;;;;;18.05;8.80;;;;;;;;;;5000556;28;20704;-86
2020/12/04 15:02:52;;;;;;;17.73;8.55;;;;;;;;;;5009729;28;20029;-96
2020/12/04 15:05:18;;;;;;;;;;;;;;;;;;5017157;28;20021;-96
2020/12/04 15:07:44;;;;;;;14.32;7.95;;;;;;;;;;5019198;28;19912;-94
2020/12/04 15:10:10;;;;;;;17.30;8.50;;;;;;;;;;5012675;28;20057;-95
2020/12/04 15:12:36;;;;;;;17.08;9.30;;;;;;;;;;4999998;28;20038;-95
2020/12/04 15:15:03;;;;;;;15.77;8.38;;;;;;;;;;5007598;28;20604;-95
2020/12/04 15:17:30;;;;;;;19.88;9.57;;;;;;;;;;5007312;28;20389;-94
2020/12/04 15:19:56;;;;;;;11.70;8.15;;;;;;;;;;5017368;28;20523;-93
2020/12/04 15:22:22;;;;;;;18.42;9.27;;;;;;;;;;4999246;28;20105;-94
2020/12/04 15:24:48;;;;;;;21.30;8.60;;;;;;;;;;5010197;28;20125;-95
2020/12/04 15:27:14;;;;;;;16.67;9.10;;;;;;;;;;5006570;28;20026;-95
2020/12/04 15:29:41;;;;;;;15.88;9.07;;;;;;;;;;5002969;28;20030;-95
2020/12/04 15:32:12;;;;;;;20.40;8.57;;;;;;;;;;5012528;28;20384;-94
2020/12/04 15:34:39;;;;;;;16.10;8.93;;;;;;;;;;5011284;28;20030;-95
2020/12/04 15:37:05;;;;;;;16.65;8.50;;;;;;;;;;5004508;28;20022;-94
2020/12/04 15:39:34;;;;;;;22.98;11.18;;;;;;;;;;5004903;28;20026;-95
2020/12/04 15:42:02;;;;;;;19.38;10.80;;;;;;;;;;4996071;28;20077;-95
2020/12/04 15:44:28;;;;;;;23.33;10.00;;;;;;;;;;5016389;28;20467;-95
2020/12/04 15:46:54;;;;;;;;;;;;;;;;;;5017164;28;20026;-95
2020/12/04 15:49:20;;;;;;;18.80;8.93;;;;;;;;;;5006394;28;20059;-95
2020/12/04 15:51:46;;;;;;;15.77;9.07;;;;;;;;;;5009492;28;20105;-95
2020/12/04 15:54:12;;;;;;;17.05;9.10;;;;;;;;;;5000111;28;20049;-96
2020/12/04 15:56:38;;;;;;;20.98;9.52;;;;;;;;;;5016569;28;20373;-95
2020/12/04 15:59:04;;;;;;;20.33;9.75;;;;;;;;;;5008637;28;20034;-95
2020/12/04 16:01:30;;;;;;;16.05;8.98;;;;;;;;;;4995659;28;20378;-95
2020/12/04 16:03:56;;;;;;;20.13;10.30;;;;;;;;;;5011535;28;20109;-95
2020/12/04 16:06:25;;;;;;;22.42;9.23;;;;;;;;;;5015520;28;20026;-95
2020/12/04 16:08:52;;;;;;;16.05;9.55;;;;;;;;;;5009929;28;20045;-93
2020/12/04 16:11:18;;;;;;;;;;;;;;;;;;5007952;28;20014;-88
2020/12/04 16:13:44;;;;;;;17.92;8.77;;;;;;;;;;5009258;28;19960;-86
2020/12/04 16:16:10;;;;;;;20.33;8.43;;;;;;;;;;5000948;28;20105;-86
2020/12/04 16:18:36;;;;;;;18.05;8.73;;;;;;;;;;5007212;28;20040;-87
2020/12/04 16:21:02;;;;;;;14.50;8.18;;;;;;;;;;5013617;28;20032;-93
2020/12/04 16:23:28;;;;;;;13.93;8.50;;;;;;;;;;5026747;28;20026;-96
2020/12/04 16:28:30;;;;;;;14.10;7.45;;;;;;;;;;5208266;22;20144;-96
2020/12/04 16:30:56;;;;;;;18.58;10.10;;;;;;;;;;5036266;28;20037;-96
2020/12/04 16:33:22;;;;;;;16.83;9.75;;;;;;;;;;5033518;28;20025;-96
2020/12/04 16:35:52;;;;;;;20.10;11.75;;;;;;;;;;5041791;28;20025;-96
2020/12/04 16:38:19;;;;;;;21.75;15.55;;;;;;;;;;5028839;28;20038;-96
2020/12/04 16:40:45;;;;;;;19.27;12.02;;;;;;;;;;5027628;28;20104;-96
2020/12/04 16:43:11;;;;;;;27.67;13.38;;;;;;;;;;5041758;28;20029;-95
2020/12/04 16:45:37;;;;;;;;;;;;;;;;;;5034380;28;20064;-94
2020/12/04 16:48:03;;;;;;;21.45;13.30;;;;;;;;;;5015176;28;19914;-94
2020/12/04 16:50:29;;;;;;;66.68;35.13;;;;;;;;;;5001891;28;20038;-95
2020/12/04 16:52:55;;;;;;;22.05;11.65;;;;;;;;;;5014495;28;20041;-95
2020/12/04 16:55:21;;;;;;;21.83;11.65;;;;;;;;;;5026935;28;20034;-95
2020/12/04 16:57:48;;;;;;;17.83;10.65;;;;;;;;;;5002090;28;20026;-96
2020/12/04 17:00:14;;;;;;;14.90;9.95;;;;;;;;;;5012544;28;20030;-95
2020/12/04 17:02:40;;;;;;;171.50;77.82;;;;;;;;;;5007736;28;20030;-96
2020/12/04 17:05:06;;;;;;;35.30;18.30;;;;;;;;;;5017953;28;20113;-96
2020/12/04 17:07:33;;;;;;;15.40;8.88;;;;;;;;;;5020521;28;20068;-96
2020/12/04 17:09:59;;;;;;;;;;;;;;;;;;5022828;28;20076;-96
2020/12/04 17:12:27;;;;;;;15.20;7.60;;;;;;;;;;5006934;28;20335;-96
2020/12/04 17:14:56;;;;;;;35.47;19.35;;;;;;;;;;4999027;28;20025;-94
2020/12/04 17:17:22;;;;;;;86.95;45.97;;;;;;;;;;5020968;28;20102;-94
2020/12/04 17:19:49;;;;;;;41.40;22.85;;;;;;;;;;5002028;28;20021;-95
2020/12/04 17:22:15;;;;;;;31.60;16.27;;;;;;;;;;5020609;28;20021;-96
2020/12/04 17:24:41;;;;;;;;;;;;;;;;;;4998398;28;20483;-94
2020/12/04 17:27:09;;;;;;;17.48;10.13;;;;;;;;;;5016692;28;19960;-96
2020/12/04 17:29:35;;;;;;;20.13;11.35;;;;;;;;;;5013885;28;20151;-94
2020/12/04 17:32:02;;;;;;;49.53;26.65;;;;;;;;;;5004278;28;20117;-92
2020/12/04 17:34:28;;;;;;;44.92;20.40;;;;;;;;;;5015069;28;20575;-93
2020/12/04 17:36:54;;;;;;;17.13;10.20;;;;;;;;;;4996799;28;20025;-93
2020/12/04 17:39:20;;;;;;;27.30;12.60;;;;;;;;;;4996713;28;20137;-93
2020/12/04 17:41:47;;;;;;;25.38;13.13;;;;;;;;;;4997649;28;20064;-92
2020/12/04 17:44:13;;;;;;;15.57;10.90;;;;;;;;;;5001677;28;20038;-91
2020/12/04 17:46:41;;;;;;;13.98;8.48;;;;;;;;;;4996246;28;20060;-93
2020/12/04 17:49:07;;;;;;;17.33;8.55;;;;;;;;;;5013236;28;20445;-93
2020/12/04 17:51:33;;;;;;;;;;;;;;;;;;5012997;28;20058;-90
2020/12/04 17:54:01;;;;;;;16.35;8.68;;;;;;;;;;4995965;28;19912;-92
2020/12/04 17:56:28;;;;;;;14.10;8.73;;;;;;;;;;5012881;28;20033;-93
2020/12/04 17:58:54;;;;;;;21.00;9.85;;;;;;;;;;5014491;28;20053;-92
2020/12/04 18:01:20;;;;;;;12.38;7.47;;;;;;;;;;5013898;28;20595;-92
2020/12/04 18:03:46;;;;;;;15.65;7.55;;;;;;;;;;4994619;28;21136;-90
2020/12/04 18:06:14;;;;;;;;;;;;;;;;;;5009623;28;20057;-93
2020/12/04 18:08:40;;;;;;;14.98;7.88;;;;;;;;;;4995103;28;19913;-94
2020/12/04 18:11:06;;;;;;;18.38;8.38;;;;;;;;;;5013763;28;20085;-93
2020/12/04 18:13:33;;;;;;;18.00;8.40;;;;;;;;;;5012688;28;20484;-91
2020/12/04 18:15:59;;;;;;;12.35;8.23;;;;;;;;;;5013330;28;20465;-92
2020/12/04 18:18:25;;;;;;;16.10;9.35;;;;;;;;;;5014098;28;20028;-95
2020/12/04 18:20:51;;;;;;;15.52;7.72;;;;;;;;;;4996376;28;20065;-92
2020/12/04 18:23:17;;;;;;;23.13;13.55;;;;;;;;;;4996545;28;20663;-92
2020/12/04 18:25:43;;;;;;;18.88;10.45;;;;;;;;;;4996087;28;20773;-93
2020/12/04 18:28:09;;;;;;;81.57;44.28;;;;;;;;;;4996672;28;20058;-93
2020/12/04 18:30:35;;;;;;;112.72;59.83;;;;;;;;;;4996347;28;20026;-96
2020/12/04 18:33:01;;;;;;;23.77;12.55;;;;;;;;;;5006456;28;20026;-96
2020/12/04 18:35:27;;;;;;;18.33;11.05;;;;;;;;;;5004443;28;20493;-96
2020/12/04 18:37:55;;;;;;;14.35;9.77;;;;;;;;;;5014350;28;20045;-94
2020/12/04 18:40:21;;;;;;;10.77;7.20;;;;;;;;;;4997957;28;20030;-92
2020/12/04 18:42:47;;;;;;;20.50;11.18;;;;;;;;;;5017713;28;20030;-91
